Huvudsida
METAR-TAF:

METAR-TAF

Flygplatser :

Medina, Saudiarabien

latitud: 24-33N, longitud: 039-42E, höjd: 654 m

Aktuellt väderrapport

Denna rapport gjordes för 1 timme och 3 minuter sedan, klockan 21:00 UTC
Vind 2 kt från nordväst
Temperatur 20°C
Fuktighet 26%
Tryck 1018 hPa
Sikt 10 km eller mer
Inga moln under 1 500 m eller inga cumulonimbus

METAR: OEMA 142100Z 31002KT CAVOK 20/00 Q1018 NOSIG

Tid: 01:03 (22:03 UTC)

Väderprognos

Denna rapport gjordes för 5 timmar och 3 minuter sedan, klockan 17:00 UTC
Prognos gäller från 14 kl. 18 UTC till 15 kl. 24 UTC
Vind 3 kt varierande vindriktning
Sikt 10 km eller mer
Inga moln under 1 500 m eller inga cumulonimbus
Blir
från 15 kl. 10 UTC till 15 kl. 12 UTC
Vind 8 kt från väst
Blir
från 15 kl. 12 UTC till 15 kl. 22 UTC
Vind 5 kt från syd

TAF: OEMA 141700Z 1418/1524 VRB03KT CAVOK BECMG 1510/1512 28008KT BECMG 1512/1522 19005KT

Aktuella väderrapporter och prognoser från 4000 flygplatser (METAR- och TAF-rapporter).

De tillgängliga stationerna syns som gula och röda prickar på kartan.

För musen över prickarna för att se namnen på stationerna.

Klicka sedan för att få väderrapporter och prognoser.

För att ändra kartan: Klicka på de gröna knapparna med ett svart kors på för att zooma in; den gröna knappen med ett streck på för att zooma ut; eller på de gröna pilarna för angränsande kartor.


METAR-TAF: